sensor_id;sensor_type;location;lat;lon;timestamp;pressure;altitude;pressure_sealevel;temperature;humidity
34328;BME280;20588;48.840;10.064;2022-08-19T00:00:07;95992.88;;;20.21;91.73
34328;BME280;20588;48.840;10.064;2022-08-19T00:02:35;95992.88;;;20.21;91.48
34328;BME280;20588;48.840;10.064;2022-08-19T00:05:01;95986.13;;;20.20;91.18
34328;BME280;20588;48.840;10.064;2022-08-19T00:07:28;95995.50;;;20.21;91.32
34328;BME280;20588;48.840;10.064;2022-08-19T00:09:54;95989.50;;;20.21;91.47
34328;BME280;20588;48.840;10.064;2022-08-19T00:12:20;95987.44;;;20.18;91.98
34328;BME280;20588;48.840;10.064;2022-08-19T00:14:46;95995.56;;;20.16;92.66
34328;BME280;20588;48.840;10.064;2022-08-19T00:17:12;96001.06;;;20.15;93.75
34328;BME280;20588;48.840;10.064;2022-08-19T00:19:39;96000.59;;;20.13;94.50
34328;BME280;20588;48.840;10.064;2022-08-19T00:22:05;95999.28;;;20.10;95.39
34328;BME280;20588;48.840;10.064;2022-08-19T00:24:31;96000.63;;;20.08;96.80
34328;BME280;20588;48.840;10.064;2022-08-19T00:26:58;96005.91;;;20.03;97.30
34328;BME280;20588;48.840;10.064;2022-08-19T00:29:25;96003.88;;;20.00;98.92
34328;BME280;20588;48.840;10.064;2022-08-19T00:31:52;96003.66;;;19.96;99.77
34328;BME280;20588;48.840;10.064;2022-08-19T00:34:23;95990.66;;;19.91;100.00
34328;BME280;20588;48.840;10.064;2022-08-19T00:36:50;95982.88;;;19.86;100.00
34328;BME280;20588;48.840;10.064;2022-08-19T00:39:17;95980.06;;;19.83;100.00
34328;BME280;20588;48.840;10.064;2022-08-19T00:41:45;95980.13;;;19.78;100.00
34328;BME280;20588;48.840;10.064;2022-08-19T00:44:23;95975.94;;;19.77;100.00
34328;BME280;20588;48.840;10.064;2022-08-19T00:46:53;95979.41;;;19.72;100.00
34328;BME280;20588;48.840;10.064;2022-08-19T00:49:23;95977.06;;;19.70;100.00
34328;BME280;20588;48.840;10.064;2022-08-19T00:51:55;95970.56;;;19.68;100.00
34328;BME280;20588;48.840;10.064;2022-08-19T00:54:23;95973.75;;;19.65;100.00
34328;BME280;20588;48.840;10.064;2022-08-19T00:56:50;95977.44;;;19.64;100.00
34328;BME280;20588;48.840;10.064;2022-08-19T00:59:17;95984.75;;;19.62;100.00
34328;BME280;20588;48.840;10.064;2022-08-19T01:01:44;95994.69;;;19.60;100.00
34328;BME280;20588;48.840;10.064;2022-08-19T01:04:12;96000.97;;;19.59;100.00
34328;BME280;20588;48.840;10.064;2022-08-19T01:06:40;96003.34;;;19.55;100.00
34328;BME280;20588;48.840;10.064;2022-08-19T01:09:07;96003.63;;;19.54;100.00
34328;BME280;20588;48.840;10.064;2022-08-19T01:11:36;96003.44;;;19.50;100.00
34328;BME280;20588;48.840;10.064;2022-08-19T01:14:05;95998.50;;;19.49;100.00
34328;BME280;20588;48.840;10.064;2022-08-19T01:16:32;95998.00;;;19.47;100.00
34328;BME280;20588;48.840;10.064;2022-08-19T01:19:00;95983.66;;;19.44;100.00
34328;BME280;20588;48.840;10.064;2022-08-19T01:21:43;95979.00;;;19.41;100.00
34328;BME280;20588;48.840;10.064;2022-08-19T01:24:12;95989.22;;;19.38;100.00
34328;BME280;20588;48.840;10.064;2022-08-19T01:26:45;95996.81;;;19.34;100.00
34328;BME280;20588;48.840;10.064;2022-08-19T01:29:11;95994.19;;;19.34;100.00
34328;BME280;20588;48.840;10.064;2022-08-19T01:31:38;96001.56;;;19.32;100.00
34328;BME280;20588;48.840;10.064;2022-08-19T01:34:06;95994.75;;;19.31;100.00
34328;BME280;20588;48.840;10.064;2022-08-19T01:39:04;96002.09;;;19.29;100.00
34328;BME280;20588;48.840;10.064;2022-08-19T01:41:30;96000.53;;;19.28;100.00
34328;BME280;20588;48.840;10.064;2022-08-19T01:43:57;95995.84;;;19.25;100.00
34328;BME280;20588;48.840;10.064;2022-08-19T01:46:23;96001.31;;;19.24;100.00
34328;BME280;20588;48.840;10.064;2022-08-19T01:48:49;95996.38;;;19.22;100.00
34328;BME280;20588;48.840;10.064;2022-08-19T01:51:15;95991.72;;;19.19;100.00
34328;BME280;20588;48.840;10.064;2022-08-19T01:53:42;95989.38;;;19.18;100.00
34328;BME280;20588;48.840;10.064;2022-08-19T01:56:08;95993.06;;;19.17;100.00
34328;BME280;20588;48.840;10.064;2022-08-19T01:58:38;95993.84;;;19.17;100.00
34328;BME280;20588;48.840;10.064;2022-08-19T02:01:06;95986.56;;;19.14;100.00
34328;BME280;20588;48.840;10.064;2022-08-19T02:03:32;95989.75;;;19.11;100.00
34328;BME280;20588;48.840;10.064;2022-08-19T02:06:01;95991.03;;;19.09;100.00
34328;BME280;20588;48.840;10.064;2022-08-19T02:08:29;96000.22;;;19.06;100.00
34328;BME280;20588;48.840;10.064;2022-08-19T02:10:56;95994.72;;;19.08;100.00
34328;BME280;20588;48.840;10.064;2022-08-19T02:13:24;95996.03;;;19.05;100.00
34328;BME280;20588;48.840;10.064;2022-08-19T02:15:51;96004.91;;;19.04;100.00
34328;BME280;20588;48.840;10.064;2022-08-19T02:18:17;96001.53;;;19.04;100.00
34328;BME280;20588;48.840;10.064;2022-08-19T02:20:44;96006.75;;;19.04;100.00
34328;BME280;20588;48.840;10.064;2022-08-19T02:23:11;96008.59;;;19.03;100.00
34328;BME280;20588;48.840;10.064;2022-08-19T02:25:38;96009.91;;;19.01;100.00
34328;BME280;20588;48.840;10.064;2022-08-19T02:28:05;96025.53;;;19.01;100.00
34328;BME280;20588;48.840;10.064;2022-08-19T02:30:31;96021.41;;;19.00;100.00
34328;BME280;20588;48.840;10.064;2022-08-19T02:32:57;96027.41;;;19.00;100.00
34328;BME280;20588;48.840;10.064;2022-08-19T02:35:23;96014.34;;;19.00;100.00
34328;BME280;20588;48.840;10.064;2022-08-19T02:37:49;96021.41;;;19.00;100.00
34328;BME280;20588;48.840;10.064;2022-08-19T02:40:35;96019.84;;;18.99;100.00
34328;BME280;20588;48.840;10.064;2022-08-19T02:43:02;96016.44;;;18.98;100.00
34328;BME280;20588;48.840;10.064;2022-08-19T02:45:33;96015.94;;;18.96;100.00
34328;BME280;20588;48.840;10.064;2022-08-19T02:47:59;96021.16;;;18.96;100.00
34328;BME280;20588;48.840;10.064;2022-08-19T02:50:25;96022.22;;;18.95;100.00
34328;BME280;20588;48.840;10.064;2022-08-19T02:52:51;96016.50;;;18.93;100.00
34328;BME280;20588;48.840;10.064;2022-08-19T02:55:17;96017.53;;;18.92;100.00
34328;BME280;20588;48.840;10.064;2022-08-19T02:57:44;96009.72;;;18.92;100.00
34328;BME280;20588;48.840;10.064;2022-08-19T03:00:10;96017.03;;;18.90;100.00
34328;BME280;20588;48.840;10.064;2022-08-19T03:02:40;96023.31;;;18.89;100.00
34328;BME280;20588;48.840;10.064;2022-08-19T03:05:08;96012.38;;;18.87;100.00
34328;BME280;20588;48.840;10.064;2022-08-19T03:07:36;96023.59;;;18.88;100.00
34328;BME280;20588;48.840;10.064;2022-08-19T03:10:03;96019.16;;;18.88;100.00
34328;BME280;20588;48.840;10.064;2022-08-19T03:12:29;96017.31;;;18.89;100.00
34328;BME280;20588;48.840;10.064;2022-08-19T03:14:56;96016.28;;;18.90;100.00
34328;BME280;20588;48.840;10.064;2022-08-19T03:17:22;95998.28;;;18.88;100.00
34328;BME280;20588;48.840;10.064;2022-08-19T03:19:49;95992.81;;;18.90;100.00
34328;BME280;20588;48.840;10.064;2022-08-19T03:22:15;95992.03;;;18.89;100.00
34328;BME280;20588;48.840;10.064;2022-08-19T03:24:41;95987.34;;;18.86;100.00
34328;BME280;20588;48.840;10.064;2022-08-19T03:27:07;95991.03;;;18.85;100.00
34328;BME280;20588;48.840;10.064;2022-08-19T03:29:33;95997.53;;;18.83;100.00
34328;BME280;20588;48.840;10.064;2022-08-19T03:32:04;95995.22;;;18.81;100.00
34328;BME280;20588;48.840;10.064;2022-08-19T03:34:33;95995.75;;;18.78;100.00
34328;BME280;20588;48.840;10.064;2022-08-19T03:37:04;96007.53;;;18.76;100.00
34328;BME280;20588;48.840;10.064;2022-08-19T03:39:31;95999.19;;;18.74;100.00
34328;BME280;20588;48.840;10.064;2022-08-19T03:41:57;96004.69;;;18.72;100.00
34328;BME280;20588;48.840;10.064;2022-08-19T03:44:25;96007.28;;;18.72;100.00
34328;BME280;20588;48.840;10.064;2022-08-19T03:46:57;96008.06;;;18.73;100.00
34328;BME280;20588;48.840;10.064;2022-08-19T03:49:27;95999.72;;;18.71;100.00
34328;BME280;20588;48.840;10.064;2022-08-19T03:51:56;96008.88;;;18.68;100.00
34328;BME280;20588;48.840;10.064;2022-08-19T03:54:24;96011.22;;;18.70;100.00
34328;BME280;20588;48.840;10.064;2022-08-19T03:56:52;96020.09;;;18.69;100.00
34328;BME280;20588;48.840;10.064;2022-08-19T03:59:23;96010.44;;;18.69;100.00
34328;BME280;20588;48.840;10.064;2022-08-19T04:01:54;96009.69;;;18.69;100.00
34328;BME280;20588;48.840;10.064;2022-08-19T04:04:20;96008.38;;;18.66;100.00
34328;BME280;20588;48.840;10.064;2022-08-19T04:06:47;96012.03;;;18.65;100.00
34328;BME280;20588;48.840;10.064;2022-08-19T04:09:14;96005.28;;;18.64;100.00
34328;BME280;20588;48.840;10.064;2022-08-19T04:11:44;96008.66;;;18.65;100.00
34328;BME280;20588;48.840;10.064;2022-08-19T04:14:14;96007.38;;;18.62;100.00
34328;BME280;20588;48.840;10.064;2022-08-19T04:16:42;96006.59;;;18.62;100.00
34328;BME280;20588;48.840;10.064;2022-08-19T04:19:10;96007.66;;;18.61;100.00
34328;BME280;20588;48.840;10.064;2022-08-19T04:21:36;96000.88;;;18.60;100.00
34328;BME280;20588;48.840;10.064;2022-08-19T04:24:03;95997.50;;;18.59;100.00
34328;BME280;20588;48.840;10.064;2022-08-19T04:26:33;95998.00;;;18.61;100.00
34328;BME280;20588;48.840;10.064;2022-08-19T04:29:09;96009.97;;;18.62;100.00
34328;BME280;20588;48.840;10.064;2022-08-19T04:31:36;95999.81;;;18.61;100.00
34328;BME280;20588;48.840;10.064;2022-08-19T04:34:04;96012.06;;;18.60;100.00
34328;BME280;20588;48.840;10.064;2022-08-19T04:36:34;96004.25;;;18.60;100.00
34328;BME280;20588;48.840;10.064;2022-08-19T04:39:05;96002.97;;;18.58;100.00
34328;BME280;20588;48.840;10.064;2022-08-19T04:41:32;95999.59;;;18.57;100.00
34328;BME280;20588;48.840;10.064;2022-08-19T04:44:17;96008.72;;;18.60;100.00
34328;BME280;20588;48.840;10.064;2022-08-19T04:46:47;96004.50;;;18.64;100.00
34328;BME280;20588;48.840;10.064;2022-08-19T04:49:15;96008.38;;;18.66;100.00
34328;BME280;20588;48.840;10.064;2022-08-19T04:51:44;96007.81;;;18.69;100.00
34328;BME280;20588;48.840;10.064;2022-08-19T04:54:11;96012.22;;;18.74;100.00
34328;BME280;20588;48.840;10.064;2022-08-19T04:56:38;96015.63;;;18.74;100.00
34328;BME280;20588;48.840;10.064;2022-08-19T04:59:04;96023.94;;;18.76;100.00
34328;BME280;20588;48.840;10.064;2022-08-19T05:01:32;96028.91;;;18.78;100.00
34328;BME280;20588;48.840;10.064;2022-08-19T05:04:00;96038.25;;;18.79;100.00
34328;BME280;20588;48.840;10.064;2022-08-19T05:06:26;96044.22;;;18.84;100.00
34328;BME280;20588;48.840;10.064;2022-08-19T05:08:54;96046.28;;;18.87;100.00
34328;BME280;20588;48.840;10.064;2022-08-19T05:11:24;96048.59;;;18.89;100.00
34328;BME280;20588;48.840;10.064;2022-08-19T05:13:51;96051.44;;;18.92;100.00
34328;BME280;20588;48.840;10.064;2022-08-19T05:16:20;96065.00;;;18.94;100.00
34328;BME280;20588;48.840;10.064;2022-08-19T05:18:46;96063.94;;;18.95;100.00
34328;BME280;20588;48.840;10.064;2022-08-19T05:21:32;96068.38;;;18.95;100.00
34328;BME280;20588;48.840;10.064;2022-08-19T05:24:19;96068.09;;;18.96;100.00
34328;BME280;20588;48.840;10.064;2022-08-19T05:26:49;96079.59;;;18.95;100.00
34328;BME280;20588;48.840;10.064;2022-08-19T05:29:19;96080.13;;;18.97;100.00
34328;BME280;20588;48.840;10.064;2022-08-19T05:31:46;96086.59;;;19.00;100.00
34328;BME280;20588;48.840;10.064;2022-08-19T05:34:13;96082.94;;;19.01;100.00
34328;BME280;20588;48.840;10.064;2022-08-19T05:36:42;96086.06;;;19.03;100.00
34328;BME280;20588;48.840;10.064;2022-08-19T05:39:14;96087.59;;;19.04;100.00
34328;BME280;20588;48.840;10.064;2022-08-19T05:41:43;96091.53;;;19.06;100.00
34328;BME280;20588;48.840;10.064;2022-08-19T05:44:09;96090.19;;;19.09;100.00
34328;BME280;20588;48.840;10.064;2022-08-19T05:46:38;96088.09;;;19.11;100.00
34328;BME280;20588;48.840;10.064;2022-08-19T05:49:06;96091.97;;;19.13;100.00
34328;BME280;20588;48.840;10.064;2022-08-19T05:51:35;96096.16;;;19.14;100.00
34328;BME280;20588;48.840;10.064;2022-08-19T05:54:05;96096.63;;;19.16;100.00
34328;BME280;20588;48.840;10.064;2022-08-19T05:56:32;96101.84;;;19.16;100.00
34328;BME280;20588;48.840;10.064;2022-08-19T05:59:02;96098.22;;;19.17;100.00
34328;BME280;20588;48.840;10.064;2022-08-19T06:01:28;96098.97;;;19.18;100.00
34328;BME280;20588;48.840;10.064;2022-08-19T06:03:54;96101.84;;;19.16;100.00
34328;BME280;20588;48.840;10.064;2022-08-19T06:06:22;96107.34;;;19.15;100.00
34328;BME280;20588;48.840;10.064;2022-08-19T06:08:48;96110.75;;;19.15;100.00
34328;BME280;20588;48.840;10.064;2022-08-19T06:13:50;96096.38;;;19.18;100.00
34328;BME280;20588;48.840;10.064;2022-08-19T06:16:21;96090.88;;;19.19;100.00
34328;BME280;20588;48.840;10.064;2022-08-19T06:18:51;96087.78;;;19.17;100.00
34328;BME280;20588;48.840;10.064;2022-08-19T06:21:23;96087.50;;;19.19;100.00
34328;BME280;20588;48.840;10.064;2022-08-19T06:23:50;96088.78;;;19.21;100.00
34328;BME280;20588;48.840;10.064;2022-08-19T06:26:17;96086.34;;;19.35;100.00
34328;BME280;20588;48.840;10.064;2022-08-19T06:28:44;96092.81;;;19.37;100.00
34328;BME280;20588;48.840;10.064;2022-08-19T06:31:16;96087.84;;;19.41;100.00
34328;BME280;20588;48.840;10.064;2022-08-19T06:33:44;96087.03;;;19.45;100.00
34328;BME280;20588;48.840;10.064;2022-08-19T06:36:43;96093.47;;;19.53;100.00
34328;BME280;20588;48.840;10.064;2022-08-19T06:39:13;96091.09;;;19.56;100.00
34328;BME280;20588;48.840;10.064;2022-08-19T06:41:42;96094.75;;;19.55;100.00
34328;BME280;20588;48.840;10.064;2022-08-19T06:44:10;96096.59;;;19.55;100.00
34328;BME280;20588;48.840;10.064;2022-08-19T06:46:37;96104.97;;;19.52;100.00
34328;BME280;20588;48.840;10.064;2022-08-19T06:49:04;96106.28;;;19.49;100.00
34328;BME280;20588;48.840;10.064;2022-08-19T06:51:30;96104.22;;;19.46;100.00
34328;BME280;20588;48.840;10.064;2022-08-19T06:53:58;96101.13;;;19.44;100.00
34328;BME280;20588;48.840;10.064;2022-08-19T06:56:28;96101.41;;;19.43;100.00
34328;BME280;20588;48.840;10.064;2022-08-19T06:59:04;96109.50;;;19.41;100.00
34328;BME280;20588;48.840;10.064;2022-08-19T07:01:34;96102.72;;;19.40;100.00
34328;BME280;20588;48.840;10.064;2022-08-19T07:04:00;96104.84;;;19.38;100.00
34328;BME280;20588;48.840;10.064;2022-08-19T07:06:27;96104.84;;;19.38;100.00
34328;BME280;20588;48.840;10.064;2022-08-19T07:08:53;96108.22;;;19.39;100.00
34328;BME280;20588;48.840;10.064;2022-08-19T07:11:19;96098.00;;;19.42;100.00
34328;BME280;20588;48.840;10.064;2022-08-19T07:13:46;96107.13;;;19.45;100.00
34328;BME280;20588;48.840;10.064;2022-08-19T07:16:16;96102.97;;;19.44;100.00
34328;BME280;20588;48.840;10.064;2022-08-19T07:18:42;96105.84;;;19.42;100.00
34328;BME280;20588;48.840;10.064;2022-08-19T07:21:16;96107.38;;;19.43;100.00
34328;BME280;20588;48.840;10.064;2022-08-19T07:23:43;96104.03;;;19.43;100.00
34328;BME280;20588;48.840;10.064;2022-08-19T07:26:13;96105.28;;;19.45;100.00
34328;BME280;20588;48.840;10.064;2022-08-19T07:28:40;96110.22;;;19.47;100.00
34328;BME280;20588;48.840;10.064;2022-08-19T07:31:07;96111.22;;;19.51;100.00
34328;BME280;20588;48.840;10.064;2022-08-19T07:33:35;96113.56;;;19.52;100.00
34328;BME280;20588;48.840;10.064;2022-08-19T07:36:05;96119.03;;;19.56;100.00
34328;BME280;20588;48.840;10.064;2022-08-19T07:38:32;96122.44;;;19.56;100.00
34328;BME280;20588;48.840;10.064;2022-08-19T07:41:00;96121.88;;;19.59;100.00
34328;BME280;20588;48.840;10.064;2022-08-19T07:43:27;96133.34;;;19.58;100.00
34328;BME280;20588;48.840;10.064;2022-08-19T07:45:54;96134.41;;;19.57;100.00
34328;BME280;20588;48.840;10.064;2022-08-19T07:48:25;96132.31;;;19.59;100.00
34328;BME280;20588;48.840;10.064;2022-08-19T07:50:53;96130.69;;;19.63;100.00
34328;BME280;20588;48.840;10.064;2022-08-19T07:53:23;96129.88;;;19.68;100.00
34328;BME280;20588;48.840;10.064;2022-08-19T07:55:50;96137.13;;;19.76;100.00
34328;BME280;20588;48.840;10.064;2022-08-19T07:58:20;96137.56;;;19.83;100.00
34328;BME280;20588;48.840;10.064;2022-08-19T08:00:49;96142.97;;;19.92;100.00
34328;BME280;20588;48.840;10.064;2022-08-19T08:03:18;96142.41;;;19.95;100.00
34328;BME280;20588;48.840;10.064;2022-08-19T08:05:45;96134.13;;;20.11;100.00
34328;BME280;20588;48.840;10.064;2022-08-19T08:08:30;96140.59;;;20.19;100.00
34328;BME280;20588;48.840;10.064;2022-08-19T08:11:04;96140.19;;;20.30;100.00
34328;BME280;20588;48.840;10.064;2022-08-19T08:13:30;96134.53;;;20.42;100.00
34328;BME280;20588;48.840;10.064;2022-08-19T08:15:57;96137.28;;;20.55;100.00
34328;BME280;20588;48.840;10.064;2022-08-19T08:18:26;96128.78;;;20.63;100.00
34328;BME280;20588;48.840;10.064;2022-08-19T08:20:52;96131.03;;;20.70;100.00
34328;BME280;20588;48.840;10.064;2022-08-19T08:23:18;96134.91;;;20.72;100.00
34328;BME280;20588;48.840;10.064;2022-08-19T08:25:58;96134.56;;;20.79;100.00
34328;BME280;20588;48.840;10.064;2022-08-19T08:28:26;96137.31;;;20.87;99.80
34328;BME280;20588;48.840;10.064;2022-08-19T08:30:53;96134.63;;;20.92;99.43
34328;BME280;20588;48.840;10.064;2022-08-19T08:33:23;96134.50;;;21.02;99.15
34328;BME280;20588;48.840;10.064;2022-08-19T08:35:49;96133.09;;;21.10;98.99
34328;BME280;20588;48.840;10.064;2022-08-19T08:38:15;96134.50;;;21.21;97.91
34328;BME280;20588;48.840;10.064;2022-08-19T08:40:52;96126.50;;;21.31;97.35
34328;BME280;20588;48.840;10.064;2022-08-19T08:43:35;96133.97;;;21.37;96.50
34328;BME280;20588;48.840;10.064;2022-08-19T08:46:10;96135.25;;;21.40;95.63
34328;BME280;20588;48.840;10.064;2022-08-19T08:51:28;96132.91;;;21.38;92.71
34328;BME280;20588;48.840;10.064;2022-08-19T08:53:55;96136.88;;;21.36;92.25
34328;BME280;20588;48.840;10.064;2022-08-19T08:56:22;96134.25;;;21.36;91.52
34328;BME280;20588;48.840;10.064;2022-08-19T08:59:10;96135.31;;;21.35;91.77
34328;BME280;20588;48.840;10.064;2022-08-19T09:01:38;96137.56;;;21.42;91.78
34328;BME280;20588;48.840;10.064;2022-08-19T09:04:06;96144.97;;;21.53;90.31
34328;BME280;20588;48.840;10.064;2022-08-19T09:09:34;96151.97;;;21.71;88.46
34328;BME280;20588;48.840;10.064;2022-08-19T09:17:19;96142.81;;;21.87;87.45
34328;BME280;20588;48.840;10.064;2022-08-19T09:19:57;96147.75;;;21.89;87.04
34328;BME280;20588;48.840;10.064;2022-08-19T09:22:24;96153.78;;;21.89;87.19
34328;BME280;20588;48.840;10.064;2022-08-19T09:24:51;96149.91;;;21.87;87.30
34328;BME280;20588;48.840;10.064;2022-08-19T09:27:20;96144.97;;;21.85;87.46
34328;BME280;20588;48.840;10.064;2022-08-19T09:29:47;96144.47;;;21.83;87.46
34328;BME280;20588;48.840;10.064;2022-08-19T09:32:15;96146.88;;;21.80;88.20
34328;BME280;20588;48.840;10.064;2022-08-19T09:34:41;96149.50;;;21.80;88.31
34328;BME280;20588;48.840;10.064;2022-08-19T09:37:07;96151.16;;;21.76;89.15
34328;BME280;20588;48.840;10.064;2022-08-19T09:39:33;96143.84;;;21.73;88.12
34328;BME280;20588;48.840;10.064;2022-08-19T09:42:00;96150.72;;;21.69;88.17
34328;BME280;20588;48.840;10.064;2022-08-19T09:44:26;96144.59;;;21.60;87.91
34328;BME280;20588;48.840;10.064;2022-08-19T09:46:52;96149.69;;;21.51;88.49
34328;BME280;20588;48.840;10.064;2022-08-19T09:49:20;96143.84;;;21.40;88.70
34328;BME280;20588;48.840;10.064;2022-08-19T09:51:51;96139.19;;;21.37;89.60
34328;BME280;20588;48.840;10.064;2022-08-19T09:54:17;96134.63;;;21.29;89.49
34328;BME280;20588;48.840;10.064;2022-08-19T09:56:44;96133.63;;;21.25;90.17
34328;BME280;20588;48.840;10.064;2022-08-19T09:59:10;96139.72;;;21.21;90.94
34328;BME280;20588;48.840;10.064;2022-08-19T10:01:38;96145.25;;;21.19;90.84
34328;BME280;20588;48.840;10.064;2022-08-19T10:04:04;96153.97;;;21.15;91.26
34328;BME280;20588;48.840;10.064;2022-08-19T10:06:35;96156.63;;;21.10;91.25
34328;BME280;20588;48.840;10.064;2022-08-19T10:09:03;96147.59;;;21.02;91.36
34328;BME280;20588;48.840;10.064;2022-08-19T10:11:32;96152.94;;;20.97;91.84
34328;BME280;20588;48.840;10.064;2022-08-19T10:13:58;96149.81;;;20.95;92.77
34328;BME280;20588;48.840;10.064;2022-08-19T10:16:25;96161.16;;;20.86;93.60
34328;BME280;20588;48.840;10.064;2022-08-19T10:18:52;96161.53;;;20.79;93.72
34328;BME280;20588;48.840;10.064;2022-08-19T10:21:25;96169.44;;;20.74;93.55
34328;BME280;20588;48.840;10.064;2022-08-19T10:23:55;96170.84;;;20.67;93.89
34328;BME280;20588;48.840;10.064;2022-08-19T10:26:28;96165.66;;;20.62;94.30
34328;BME280;20588;48.840;10.064;2022-08-19T10:28:56;96167.53;;;20.61;94.64
34328;BME280;20588;48.840;10.064;2022-08-19T10:31:25;96169.91;;;20.58;94.04
34328;BME280;20588;48.840;10.064;2022-08-19T10:33:52;96168.84;;;20.59;94.28
34328;BME280;20588;48.840;10.064;2022-08-19T10:36:27;96172.81;;;20.56;94.56
34328;BME280;20588;48.840;10.064;2022-08-19T10:38:56;96174.69;;;20.51;95.05
34328;BME280;20588;48.840;10.064;2022-08-19T10:41:26;96177.38;;;20.46;95.09
34328;BME280;20588;48.840;10.064;2022-08-19T10:43:55;96177.94;;;20.43;95.62
34328;BME280;20588;48.840;10.064;2022-08-19T10:46:24;96176.19;;;20.38;97.39
34328;BME280;20588;48.840;10.064;2022-08-19T10:48:51;96188.03;;;20.31;98.89
34328;BME280;20588;48.840;10.064;2022-08-19T10:51:18;96183.41;;;20.23;100.00
34328;BME280;20588;48.840;10.064;2022-08-19T10:54:03;96185.31;;;20.17;100.00
34328;BME280;20588;48.840;10.064;2022-08-19T10:56:30;96179.81;;;20.19;100.00
34328;BME280;20588;48.840;10.064;2022-08-19T10:59:23;96180.06;;;20.17;100.00
34328;BME280;20588;48.840;10.064;2022-08-19T11:01:51;96181.41;;;20.15;100.00
34328;BME280;20588;48.840;10.064;2022-08-19T11:04:18;96183.25;;;20.14;100.00
34328;BME280;20588;48.840;10.064;2022-08-19T11:06:47;96183.91;;;20.25;100.00
34328;BME280;20588;48.840;10.064;2022-08-19T11:09:15;96183.84;;;20.53;100.00
34328;BME280;20588;48.840;10.064;2022-08-19T11:11:42;96185.81;;;20.80;98.24
34328;BME280;20588;48.840;10.064;2022-08-19T11:14:14;96189.69;;;21.06;96.30
34328;BME280;20588;48.840;10.064;2022-08-19T11:16:41;96193.00;;;21.11;98.69
34328;BME280;20588;48.840;10.064;2022-08-19T11:19:09;96188.28;;;21.13;98.81
34328;BME280;20588;48.840;10.064;2022-08-19T11:21:39;96188.56;;;21.12;97.90
34328;BME280;20588;48.840;10.064;2022-08-19T11:24:08;96186.44;;;20.95;100.00
34328;BME280;20588;48.840;10.064;2022-08-19T11:26:36;96182.97;;;21.00;100.00
34328;BME280;20588;48.840;10.064;2022-08-19T11:29:05;96195.94;;;20.86;100.00
34328;BME280;20588;48.840;10.064;2022-08-19T11:31:33;96196.66;;;20.73;100.00
34328;BME280;20588;48.840;10.064;2022-08-19T11:34:02;96182.94;;;20.81;100.00
34328;BME280;20588;48.840;10.064;2022-08-19T11:36:30;96187.13;;;20.82;100.00
34328;BME280;20588;48.840;10.064;2022-08-19T11:38:58;96195.38;;;20.71;100.00
34328;BME280;20588;48.840;10.064;2022-08-19T11:41:25;96191.41;;;20.55;100.00
34328;BME280;20588;48.840;10.064;2022-08-19T11:43:52;96190.50;;;20.41;100.00
34328;BME280;20588;48.840;10.064;2022-08-19T11:46:20;96193.25;;;20.31;100.00
34328;BME280;20588;48.840;10.064;2022-08-19T11:48:47;96185.75;;;20.24;100.00
34328;BME280;20588;48.840;10.064;2022-08-19T11:51:19;96186.03;;;20.23;100.00
34328;BME280;20588;48.840;10.064;2022-08-19T11:53:46;96186.03;;;20.23;100.00
34328;BME280;20588;48.840;10.064;2022-08-19T11:56:12;96189.19;;;20.20;100.00
34328;BME280;20588;48.840;10.064;2022-08-19T11:58:39;96192.06;;;20.18;100.00
34328;BME280;20588;48.840;10.064;2022-08-19T12:01:12;96198.38;;;20.12;100.00
34328;BME280;20588;48.840;10.064;2022-08-19T12:03:40;96189.75;;;20.12;100.00
34328;BME280;20588;48.840;10.064;2022-08-19T12:06:08;96202.06;;;20.11;100.00
34328;BME280;20588;48.840;10.064;2022-08-19T12:08:35;96192.66;;;20.10;100.00
34328;BME280;20588;48.840;10.064;2022-08-19T12:11:01;96195.53;;;20.09;100.00
34328;BME280;20588;48.840;10.064;2022-08-19T12:13:29;96195.06;;;20.07;100.00
34328;BME280;20588;48.840;10.064;2022-08-19T12:15:56;96195.00;;;20.12;100.00
34328;BME280;20588;48.840;10.064;2022-08-19T12:18:23;96196.59;;;20.08;100.00
34328;BME280;20588;48.840;10.064;2022-08-19T12:20:51;96197.16;;;20.05;100.00
34328;BME280;20588;48.840;10.064;2022-08-19T12:23:18;96198.22;;;20.04;100.00
34328;BME280;20588;48.840;10.064;2022-08-19T12:25:46;96202.44;;;20.00;100.00
34328;BME280;20588;48.840;10.064;2022-08-19T12:28:16;96195.66;;;19.99;100.00
34328;BME280;20588;48.840;10.064;2022-08-19T12:30:43;96194.66;;;19.95;100.00
34328;BME280;20588;48.840;10.064;2022-08-19T12:33:09;96198.66;;;19.87;100.00
34328;BME280;20588;48.840;10.064;2022-08-19T12:35:38;96198.41;;;19.84;100.00
34328;BME280;20588;48.840;10.064;2022-08-19T12:38:04;96196.34;;;19.81;100.00
34328;BME280;20588;48.840;10.064;2022-08-19T12:40:31;96195.00;;;19.83;100.00
34328;BME280;20588;48.840;10.064;2022-08-19T12:42:57;96201.06;;;19.79;100.00
34328;BME280;20588;48.840;10.064;2022-08-19T12:45:23;96201.66;;;19.70;100.00
34328;BME280;20588;48.840;10.064;2022-08-19T12:47:49;96198.81;;;19.67;100.00
34328;BME280;20588;48.840;10.064;2022-08-19T12:50:15;96195.97;;;19.63;100.00
34328;BME280;20588;48.840;10.064;2022-08-19T12:52:41;96203.56;;;19.60;100.00
34328;BME280;20588;48.840;10.064;2022-08-19T12:55:09;96202.28;;;19.57;100.00
34328;BME280;20588;48.840;10.064;2022-08-19T12:57:35;96198.97;;;19.52;100.00
34328;BME280;20588;48.840;10.064;2022-08-19T13:00:08;96214.38;;;19.48;100.00
34328;BME280;20588;48.840;10.064;2022-08-19T13:02:40;96211.78;;;19.43;100.00
34328;BME280;20588;48.840;10.064;2022-08-19T13:05:09;96216.81;;;19.40;100.00